Terminal Aerodrome Forecast
Issued by NWS Quad Cities IA IL

Home | Current Version | Previous Version | Text Only | Print | Product List | Glossary On
Versions: 1 2 3 4 5 6 7 8 9 10 11 12 13 14 15 16 17 18 19 20 21 22 23 24 25 26 27
591
FTUS43 KDVN 170535
TAFDBQ
TAF
KDBQ 170535Z 1706/1806 03004KT 1/4SM -DZ FG VV002
     FM171300 30005KT 1SM BR OVC004
     FM171600 30008KT 4SM BR OVC007
     FM180100 28007KT 5SM BR BKN020=

USA.gov is the U.S. government's official web portal to all federal, state and local government web resources and services.